Other Surface Observations
Issued by NWS Great Falls, MT

Home | Current Version | Previous Version | Text Only | Print | Product List | Glossary On
Versions: 1 2 3 4 5 6 7 8 9 10 11 12 13 14 15 16 17 18 19 20 21 22 23 24 25 26 27 28 29 30 31 32 33 34 35 36 37 38 39 40 41 42 43 44 45 46 47 48 49 50
000
SXUS55 KTFX 170821
OSOTFX

AREA AWOS OBSERVATIONS
NATIONAL WEATHER SERVICE GREAT FALLS MT
0121 AM MST Sun Dec 17 2017

METAR KCII 170820Z AUTO 22007KT 10SM M04/M13 A2986 RMK A01
METAR K6S0 170820Z AUTO 25022KT 10SM CLR M07/M08 A2999 RMK A01
METAR K6S8 170815Z AUTO 23006KT 10SM M06/M06 A3002 RMK A01
METAR K7S0 170815Z AUTO 15005KT 10SM M11/M12 A3014 RMK A01



USA.gov is the U.S. government's official web portal to all federal, state and local government web resources and services.